sensor_id;sensor_type;location;lat;lon;timestamp;pressure;altitude;pressure_sealevel;temperature;humidity
38197;BME280;26543;51.976;4.616;2023-12-20T00:01:14;61865.97;;;-140.72;100.00
38197;BME280;26543;51.976;4.616;2023-12-20T00:03:39;61827.31;;;-140.72;100.00
38197;BME280;26543;51.976;4.616;2023-12-20T00:06:04;61833.44;;;-140.72;100.00
38197;BME280;26543;51.976;4.616;2023-12-20T00:08:30;61809.03;;;-140.72;100.00
38197;BME280;26543;51.976;4.616;2023-12-20T00:10:55;61766.31;;;-140.72;100.00
38197;BME280;26543;51.976;4.616;2023-12-20T00:13:20;61733.78;;;-140.72;100.00
38197;BME280;26543;51.976;4.616;2023-12-20T00:15:45;61731.72;;;-140.72;100.00
38197;BME280;26543;51.976;4.616;2023-12-20T00:18:10;61717.50;;;-140.72;100.00
38197;BME280;26543;51.976;4.616;2023-12-20T00:20:36;61709.38;;;-140.72;100.00
38197;BME280;26543;51.976;4.616;2023-12-20T00:23:01;61715.47;;;-140.72;100.00
38197;BME280;26543;51.976;4.616;2023-12-20T00:25:27;61719.53;;;-140.72;100.00
38197;BME280;26543;51.976;4.616;2023-12-20T00:27:52;61743.94;;;-140.72;100.00
38197;BME280;26543;51.976;4.616;2023-12-20T00:30:17;61729.69;;;-140.72;100.00
38197;BME280;26543;51.976;4.616;2023-12-20T00:32:43;61756.13;;;-140.72;100.00
38197;BME280;26543;51.976;4.616;2023-12-20T00:35:11;61829.38;;;-140.72;100.00
38197;BME280;26543;51.976;4.616;2023-12-20T00:37:36;61841.56;;;-140.72;100.00
38197;BME280;26543;51.976;4.616;2023-12-20T00:40:02;61865.97;;;-140.72;100.00
38197;BME280;26543;51.976;4.616;2023-12-20T00:42:27;61890.38;;;-140.72;100.00
38197;BME280;26543;51.976;4.616;2023-12-20T00:44:52;61896.47;;;-140.72;100.00
38197;BME280;26543;51.976;4.616;2023-12-20T00:47:18;61900.56;;;-140.72;100.00
38197;BME280;26543;51.976;4.616;2023-12-20T00:49:43;61878.19;;;-140.72;100.00
38197;BME280;26543;51.976;4.616;2023-12-20T00:52:08;61843.59;;;-140.72;100.00
38197;BME280;26543;51.976;4.616;2023-12-20T00:54:33;61821.22;;;-140.72;100.00
38197;BME280;26543;51.976;4.616;2023-12-20T00:56:59;61764.28;;;-140.72;100.00
38197;BME280;26543;51.976;4.616;2023-12-20T00:59:24;61729.69;;;-140.72;100.00
38197;BME280;26543;51.976;4.616;2023-12-20T01:01:49;61615.81;;;-140.72;100.00
38197;BME280;26543;51.976;4.616;2023-12-20T01:04:15;61611.72;;;-140.72;100.00
38197;BME280;26543;51.976;4.616;2023-12-20T01:09:44;61630.03;;;-140.72;100.00
38197;BME280;26543;51.976;4.616;2023-12-20T01:12:10;61526.31;;;-140.72;100.00
38197;BME280;26543;51.976;4.616;2023-12-20T01:14:43;61544.63;;;-140.72;100.00
38197;BME280;26543;51.976;4.616;2023-12-20T01:17:08;61479.53;;;-140.72;100.00
38197;BME280;26543;51.976;4.616;2023-12-20T01:19:34;61392.09;;;-140.72;100.00
38197;BME280;26543;51.976;4.616;2023-12-20T01:21:59;61386.00;;;-140.72;100.00
38197;BME280;26543;51.976;4.616;2023-12-20T01:24:25;61322.94;;;-140.72;100.00
38197;BME280;26543;51.976;4.616;2023-12-20T01:26:50;61329.03;;;-140.72;100.00
38197;BME280;26543;51.976;4.616;2023-12-20T01:29:15;61288.38;;;-140.72;100.00
38197;BME280;26543;51.976;4.616;2023-12-20T01:31:41;61259.91;;;-140.72;100.00
38197;BME280;26543;51.976;4.616;2023-12-20T01:34:06;61259.91;;;-140.72;100.00
38197;BME280;26543;51.976;4.616;2023-12-20T01:36:31;61188.72;;;-140.72;100.00
38197;BME280;26543;51.976;4.616;2023-12-20T01:38:57;61127.72;;;-140.72;100.00
38197;BME280;26543;51.976;4.616;2023-12-20T01:41:22;61064.66;;;-140.72;100.00
38197;BME280;26543;51.976;4.616;2023-12-20T01:43:47;61070.78;;;-140.72;100.00
38197;BME280;26543;51.976;4.616;2023-12-20T01:46:12;60983.31;;;-140.72;100.00
38197;BME280;26543;51.976;4.616;2023-12-20T01:48:38;60956.91;;;-140.72;100.00
38197;BME280;26543;51.976;4.616;2023-12-20T01:51:03;60944.69;;;-140.72;100.00
38197;BME280;26543;51.976;4.616;2023-12-20T01:53:29;60885.72;;;-140.72;100.00
38197;BME280;26543;51.976;4.616;2023-12-20T01:55:55;60834.88;;;-140.72;100.00
38197;BME280;26543;51.976;4.616;2023-12-20T01:58:21;60826.75;;;-140.72;100.00
38197;BME280;26543;51.976;4.616;2023-12-20T02:00:47;60769.81;;;-140.72;100.00
38197;BME280;26543;51.976;4.616;2023-12-20T02:03:12;60698.66;;;-140.72;100.00
38197;BME280;26543;51.976;4.616;2023-12-20T02:05:38;60670.19;;;-140.72;100.00
38197;BME280;26543;51.976;4.616;2023-12-20T02:08:04;60627.47;;;-140.72;100.00
38197;BME280;26543;51.976;4.616;2023-12-20T02:10:30;60637.66;;;-140.72;100.00
38197;BME280;26543;51.976;4.616;2023-12-20T02:12:56;60615.28;;;-140.72;100.00
38197;BME280;26543;51.976;4.616;2023-12-20T02:15:21;60617.31;;;-140.72;100.00
38197;BME280;26543;51.976;4.616;2023-12-20T02:17:47;60601.03;;;-140.72;100.00
38197;BME280;26543;51.976;4.616;2023-12-20T02:20:13;60631.53;;;-140.72;100.00
38197;BME280;26543;51.976;4.616;2023-12-20T02:22:38;60637.66;;;-140.72;100.00
38197;BME280;26543;51.976;4.616;2023-12-20T02:25:03;60631.53;;;-140.72;100.00
38197;BME280;26543;51.976;4.616;2023-12-20T02:27:29;60629.50;;;-140.72;100.00
38197;BME280;26543;51.976;4.616;2023-12-20T02:29:54;60609.19;;;-140.72;100.00
38197;BME280;26543;51.976;4.616;2023-12-20T02:32:20;60619.34;;;-140.72;100.00
38197;BME280;26543;51.976;4.616;2023-12-20T02:34:47;60605.13;;;-140.72;100.00
38197;BME280;26543;51.976;4.616;2023-12-20T02:37:12;60535.97;;;-140.72;100.00
38197;BME280;26543;51.976;4.616;2023-12-20T02:39:37;60505.47;;;-140.72;100.00
38197;BME280;26543;51.976;4.616;2023-12-20T02:42:03;60474.97;;;-140.72;100.00
38197;BME280;26543;51.976;4.616;2023-12-20T02:44:28;60495.31;;;-140.72;100.00
38197;BME280;26543;51.976;4.616;2023-12-20T02:47:02;60519.72;;;-140.72;100.00
38197;BME280;26543;51.976;4.616;2023-12-20T02:49:27;60454.66;;;-140.72;100.00
38197;BME280;26543;51.976;4.616;2023-12-20T02:51:52;60489.22;;;-140.72;100.00
38197;BME280;26543;51.976;4.616;2023-12-20T02:57:20;60379.41;;;-140.72;100.00
38197;BME280;26543;51.976;4.616;2023-12-20T02:59:45;60397.72;;;-140.72;100.00
38197;BME280;26543;51.976;4.616;2023-12-20T03:02:10;60373.31;;;-140.72;100.00
38197;BME280;26543;51.976;4.616;2023-12-20T03:04:36;60334.69;;;-140.72;100.00
38197;BME280;26543;51.976;4.616;2023-12-20T03:07:01;60324.53;;;-140.72;100.00
38197;BME280;26543;51.976;4.616;2023-12-20T03:09:26;60348.94;;;-140.72;100.00
38197;BME280;26543;51.976;4.616;2023-12-20T03:11:51;60304.19;;;-140.72;100.00
38197;BME280;26543;51.976;4.616;2023-12-20T03:14:16;60279.78;;;-140.72;100.00
38197;BME280;26543;51.976;4.616;2023-12-20T03:16:46;60275.72;;;-140.72;100.00
38197;BME280;26543;51.976;4.616;2023-12-20T03:19:11;60292.00;;;-140.72;100.00
38197;BME280;26543;51.976;4.616;2023-12-20T03:21:36;60369.25;;;-140.72;100.00
38197;BME280;26543;51.976;4.616;2023-12-20T03:24:01;60304.19;;;-140.72;100.00
38197;BME280;26543;51.976;4.616;2023-12-20T03:26:27;60263.53;;;-140.72;100.00
38197;BME280;26543;51.976;4.616;2023-12-20T03:28:52;60233.03;;;-140.72;100.00
38197;BME280;26543;51.976;4.616;2023-12-20T03:31:17;60153.75;;;-140.72;100.00
38197;BME280;26543;51.976;4.616;2023-12-20T03:33:42;60180.16;;;-140.72;100.00
38197;BME280;26543;51.976;4.616;2023-12-20T03:36:08;60117.16;;;-140.72;100.00
38197;BME280;26543;51.976;4.616;2023-12-20T03:41:25;60088.69;;;-140.72;100.00
38197;BME280;26543;51.976;4.616;2023-12-20T03:46:34;60017.53;;;-140.72;100.00
38197;BME280;26543;51.976;4.616;2023-12-20T03:48:59;60011.44;;;-140.72;100.00
38197;BME280;26543;51.976;4.616;2023-12-20T03:51:25;60015.50;;;-140.72;100.00
38197;BME280;26543;51.976;4.616;2023-12-20T03:53:50;59999.22;;;-140.72;100.00
38197;BME280;26543;51.976;4.616;2023-12-20T03:56:15;60005.31;;;-140.72;100.00
38197;BME280;26543;51.976;4.616;2023-12-20T03:58:40;59958.56;;;-140.72;100.00
38197;BME280;26543;51.976;4.616;2023-12-20T04:01:09;59970.78;;;-140.72;100.00
38197;BME280;26543;51.976;4.616;2023-12-20T04:03:35;59976.88;;;-140.72;100.00
38197;BME280;26543;51.976;4.616;2023-12-20T04:06:00;60015.50;;;-140.72;100.00
38197;BME280;26543;51.976;4.616;2023-12-20T04:08:25;60025.66;;;-140.72;100.00
38197;BME280;26543;51.976;4.616;2023-12-20T04:10:50;60011.44;;;-140.72;100.00
38197;BME280;26543;51.976;4.616;2023-12-20T04:13:16;60064.28;;;-140.72;100.00
38197;BME280;26543;51.976;4.616;2023-12-20T04:15:41;60094.78;;;-140.72;100.00
38197;BME280;26543;51.976;4.616;2023-12-20T04:18:06;60129.34;;;-140.72;100.00
38197;BME280;26543;51.976;4.616;2023-12-20T04:20:31;60123.25;;;-140.72;100.00
38197;BME280;26543;51.976;4.616;2023-12-20T04:22:56;60137.47;;;-140.72;100.00
38197;BME280;26543;51.976;4.616;2023-12-20T04:25:22;60161.88;;;-140.72;100.00
38197;BME280;26543;51.976;4.616;2023-12-20T04:27:47;60129.34;;;-140.72;100.00
38197;BME280;26543;51.976;4.616;2023-12-20T04:30:12;60170.00;;;-140.72;100.00
38197;BME280;26543;51.976;4.616;2023-12-20T04:32:37;60151.72;;;-140.72;100.00
38197;BME280;26543;51.976;4.616;2023-12-20T04:35:03;60186.28;;;-140.72;100.00
38197;BME280;26543;51.976;4.616;2023-12-20T04:37:28;60249.28;;;-140.72;100.00
38197;BME280;26543;51.976;4.616;2023-12-20T04:39:53;60224.91;;;-140.72;100.00
38197;BME280;26543;51.976;4.616;2023-12-20T04:42:19;60255.41;;;-140.72;100.00
38197;BME280;26543;51.976;4.616;2023-12-20T04:44:44;60279.78;;;-140.72;100.00
38197;BME280;26543;51.976;4.616;2023-12-20T04:47:10;60279.78;;;-140.72;100.00
38197;BME280;26543;51.976;4.616;2023-12-20T04:49:35;60292.00;;;-140.72;100.00
38197;BME280;26543;51.976;4.616;2023-12-20T04:52:00;60283.88;;;-140.72;100.00
38197;BME280;26543;51.976;4.616;2023-12-20T04:54:25;60224.91;;;-140.72;100.00
38197;BME280;26543;51.976;4.616;2023-12-20T04:56:51;60231.00;;;-140.72;100.00
38197;BME280;26543;51.976;4.616;2023-12-20T04:59:16;60190.34;;;-140.72;100.00
38197;BME280;26543;51.976;4.616;2023-12-20T05:01:41;60182.22;;;-140.72;100.00
38197;BME280;26543;51.976;4.616;2023-12-20T05:04:06;60139.50;;;-140.72;100.00
38197;BME280;26543;51.976;4.616;2023-12-20T05:06:31;60157.81;;;-140.72;100.00
38197;BME280;26543;51.976;4.616;2023-12-20T05:08:57;60155.78;;;-140.72;100.00
38197;BME280;26543;51.976;4.616;2023-12-20T05:11:22;60092.75;;;-140.72;100.00
38197;BME280;26543;51.976;4.616;2023-12-20T05:13:47;60080.56;;;-140.72;100.00
38197;BME280;26543;51.976;4.616;2023-12-20T05:16:12;60043.97;;;-140.72;100.00
38197;BME280;26543;51.976;4.616;2023-12-20T05:18:39;60060.22;;;-140.72;100.00
38197;BME280;26543;51.976;4.616;2023-12-20T05:21:04;60021.59;;;-140.72;100.00
38197;BME280;26543;51.976;4.616;2023-12-20T05:23:29;60054.13;;;-140.72;100.00
38197;BME280;26543;51.976;4.616;2023-12-20T05:25:55;60039.88;;;-140.72;100.00
38197;BME280;26543;51.976;4.616;2023-12-20T05:28:20;60104.94;;;-140.72;100.00
38197;BME280;26543;51.976;4.616;2023-12-20T05:30:45;60080.56;;;-140.72;100.00
38197;BME280;26543;51.976;4.616;2023-12-20T05:33:10;60072.41;;;-140.72;100.00
38197;BME280;26543;51.976;4.616;2023-12-20T05:35:36;60131.38;;;-140.72;100.00
38197;BME280;26543;51.976;4.616;2023-12-20T05:38:01;60088.69;;;-140.72;100.00
38197;BME280;26543;51.976;4.616;2023-12-20T05:40:26;60145.59;;;-140.72;100.00
38197;BME280;26543;51.976;4.616;2023-12-20T05:42:51;60184.25;;;-140.72;100.00
38197;BME280;26543;51.976;4.616;2023-12-20T05:45:17;60210.66;;;-140.72;100.00
38197;BME280;26543;51.976;4.616;2023-12-20T05:47:42;60239.13;;;-140.72;100.00
38197;BME280;26543;51.976;4.616;2023-12-20T05:50:07;60251.34;;;-140.72;100.00
38197;BME280;26543;51.976;4.616;2023-12-20T05:52:32;60251.34;;;-140.72;100.00
38197;BME280;26543;51.976;4.616;2023-12-20T05:54:58;60249.28;;;-140.72;100.00
38197;BME280;26543;51.976;4.616;2023-12-20T05:57:26;60228.97;;;-140.72;100.00
38197;BME280;26543;51.976;4.616;2023-12-20T05:59:51;60247.25;;;-140.72;100.00
38197;BME280;26543;51.976;4.616;2023-12-20T06:02:16;60239.13;;;-140.72;100.00
38197;BME280;26543;51.976;4.616;2023-12-20T06:04:42;60190.34;;;-140.72;100.00
38197;BME280;26543;51.976;4.616;2023-12-20T06:07:08;60206.59;;;-140.72;100.00
38197;BME280;26543;51.976;4.616;2023-12-20T06:09:33;60167.97;;;-140.72;100.00
38197;BME280;26543;51.976;4.616;2023-12-20T06:11:58;60214.72;;;-140.72;100.00
38197;BME280;26543;51.976;4.616;2023-12-20T06:14:24;60157.81;;;-140.72;100.00
38197;BME280;26543;51.976;4.616;2023-12-20T06:16:49;60137.47;;;-140.72;100.00
38197;BME280;26543;51.976;4.616;2023-12-20T06:19:14;60092.75;;;-140.72;100.00
38197;BME280;26543;51.976;4.616;2023-12-20T06:21:39;60078.53;;;-140.72;100.00
38197;BME280;26543;51.976;4.616;2023-12-20T06:24:05;59997.19;;;-140.72;100.00
38197;BME280;26543;51.976;4.616;2023-12-20T06:26:30;59974.84;;;-140.72;100.00
38197;BME280;26543;51.976;4.616;2023-12-20T06:28:55;59958.56;;;-140.72;100.00
38197;BME280;26543;51.976;4.616;2023-12-20T06:31:21;59907.75;;;-140.72;100.00
38197;BME280;26543;51.976;4.616;2023-12-20T06:33:46;59865.06;;;-140.72;100.00
38197;BME280;26543;51.976;4.616;2023-12-20T06:36:12;59865.06;;;-140.72;100.00
38197;BME280;26543;51.976;4.616;2023-12-20T06:38:38;59822.34;;;-140.72;100.00
38197;BME280;26543;51.976;4.616;2023-12-20T06:41:03;59856.91;;;-140.72;100.00
38197;BME280;26543;51.976;4.616;2023-12-20T06:43:29;59808.13;;;-140.72;100.00
38197;BME280;26543;51.976;4.616;2023-12-20T06:45:55;59787.81;;;-140.72;100.00
38197;BME280;26543;51.976;4.616;2023-12-20T06:48:20;59785.78;;;-140.72;100.00
38197;BME280;26543;51.976;4.616;2023-12-20T06:50:45;59759.34;;;-140.72;100.00
38197;BME280;26543;51.976;4.616;2023-12-20T06:53:11;59802.03;;;-140.72;100.00
38197;BME280;26543;51.976;4.616;2023-12-20T06:55:36;59804.06;;;-140.72;100.00
38197;BME280;26543;51.976;4.616;2023-12-20T06:58:02;59781.69;;;-140.72;100.00
38197;BME280;26543;51.976;4.616;2023-12-20T07:00:28;59763.41;;;-140.72;100.00
38197;BME280;26543;51.976;4.616;2023-12-20T07:02:53;59747.16;;;-140.72;100.00
38197;BME280;26543;51.976;4.616;2023-12-20T07:05:19;59765.44;;;-140.72;100.00
38197;BME280;26543;51.976;4.616;2023-12-20T07:07:45;59775.59;;;-140.72;100.00
38197;BME280;26543;51.976;4.616;2023-12-20T07:10:10;59749.19;;;-140.72;100.00
38197;BME280;26543;51.976;4.616;2023-12-20T07:12:35;59804.06;;;-140.72;100.00
38197;BME280;26543;51.976;4.616;2023-12-20T07:15:01;59818.28;;;-140.72;100.00
38197;BME280;26543;51.976;4.616;2023-12-20T07:17:26;59783.75;;;-140.72;100.00
38197;BME280;26543;51.976;4.616;2023-12-20T07:19:52;59816.25;;;-140.72;100.00
38197;BME280;26543;51.976;4.616;2023-12-20T07:22:17;59824.41;;;-140.72;100.00
38197;BME280;26543;51.976;4.616;2023-12-20T07:24:42;59844.72;;;-140.72;100.00
38197;BME280;26543;51.976;4.616;2023-12-20T07:27:08;59865.06;;;-140.72;100.00
38197;BME280;26543;51.976;4.616;2023-12-20T07:29:33;59901.66;;;-140.72;100.00
38197;BME280;26543;51.976;4.616;2023-12-20T07:31:58;59950.44;;;-140.72;100.00
38197;BME280;26543;51.976;4.616;2023-12-20T07:34:23;59993.13;;;-140.72;100.00
38197;BME280;26543;51.976;4.616;2023-12-20T07:36:49;60007.38;;;-140.72;100.00
38197;BME280;26543;51.976;4.616;2023-12-20T07:39:14;60041.91;;;-140.72;100.00
38197;BME280;26543;51.976;4.616;2023-12-20T07:41:39;60088.69;;;-140.72;100.00
38197;BME280;26543;51.976;4.616;2023-12-20T07:44:05;60041.91;;;-140.72;100.00
38197;BME280;26543;51.976;4.616;2023-12-20T07:46:30;60106.97;;;-140.72;100.00
38197;BME280;26543;51.976;4.616;2023-12-20T07:48:55;60161.88;;;-140.72;100.00
38197;BME280;26543;51.976;4.616;2023-12-20T07:51:20;60165.94;;;-140.72;100.00
38197;BME280;26543;51.976;4.616;2023-12-20T07:53:46;60141.53;;;-140.72;100.00
38197;BME280;26543;51.976;4.616;2023-12-20T07:56:15;60161.88;;;-140.72;100.00
38197;BME280;26543;51.976;4.616;2023-12-20T07:58:40;60172.03;;;-140.72;100.00
38197;BME280;26543;51.976;4.616;2023-12-20T08:01:05;60080.56;;;-140.72;100.00
38197;BME280;26543;51.976;4.616;2023-12-20T08:03:30;60072.41;;;-140.72;100.00
38197;BME280;26543;51.976;4.616;2023-12-20T08:05:56;60035.81;;;-140.72;100.00
38197;BME280;26543;51.976;4.616;2023-12-20T08:08:21;60048.03;;;-140.72;100.00
38197;BME280;26543;51.976;4.616;2023-12-20T08:10:46;60035.81;;;-140.72;100.00
38197;BME280;26543;51.976;4.616;2023-12-20T08:13:12;60046.00;;;-140.72;100.00
38197;BME280;26543;51.976;4.616;2023-12-20T08:15:37;60029.72;;;-140.72;100.00
38197;BME280;26543;51.976;4.616;2023-12-20T08:18:02;60050.06;;;-140.72;100.00
38197;BME280;26543;51.976;4.616;2023-12-20T08:20:28;60048.03;;;-140.72;100.00
38197;BME280;26543;51.976;4.616;2023-12-20T08:22:53;60072.41;;;-140.72;100.00
38197;BME280;26543;51.976;4.616;2023-12-20T08:25:18;60068.34;;;-140.72;100.00
38197;BME280;26543;51.976;4.616;2023-12-20T08:27:43;60043.97;;;-140.72;100.00
38197;BME280;26543;51.976;4.616;2023-12-20T08:30:09;60007.38;;;-140.72;100.00
38197;BME280;26543;51.976;4.616;2023-12-20T08:32:34;60015.50;;;-140.72;100.00
38197;BME280;26543;51.976;4.616;2023-12-20T08:35:00;59962.63;;;-140.72;100.00
38197;BME280;26543;51.976;4.616;2023-12-20T08:40:10;59956.53;;;-140.72;100.00
38197;BME280;26543;51.976;4.616;2023-12-20T08:42:36;59899.63;;;-140.72;100.00
38197;BME280;26543;51.976;4.616;2023-12-20T08:45:01;59883.34;;;-140.72;100.00
38197;BME280;26543;51.976;4.616;2023-12-20T08:47:26;59844.72;;;-140.72;100.00
38197;BME280;26543;51.976;4.616;2023-12-20T08:49:52;59802.03;;;-140.72;100.00
38197;BME280;26543;51.976;4.616;2023-12-20T08:52:21;59800.00;;;-140.72;100.00
38197;BME280;26543;51.976;4.616;2023-12-20T08:54:46;59785.78;;;-140.72;100.00
38197;BME280;26543;51.976;4.616;2023-12-20T08:57:12;59793.91;;;-140.72;100.00
38197;BME280;26543;51.976;4.616;2023-12-20T08:59:37;59777.63;;;-140.72;100.00
38197;BME280;26543;51.976;4.616;2023-12-20T09:02:02;59716.66;;;-140.72;100.00
38197;BME280;26543;51.976;4.616;2023-12-20T09:04:28;59741.03;;;-140.72;100.00
38197;BME280;26543;51.976;4.616;2023-12-20T09:06:54;59704.44;;;-140.72;100.00
38197;BME280;26543;51.976;4.616;2023-12-20T09:09:19;59657.69;;;-140.72;100.00
38197;BME280;26543;51.976;4.616;2023-12-20T09:11:44;59700.38;;;-140.72;100.00
38197;BME280;26543;51.976;4.616;2023-12-20T09:14:12;59643.47;;;-140.72;100.00
38197;BME280;26543;51.976;4.616;2023-12-20T09:16:37;59602.81;;;-140.72;100.00
38197;BME280;26543;51.976;4.616;2023-12-20T09:19:02;59621.09;;;-140.72;100.00
38197;BME280;26543;51.976;4.616;2023-12-20T09:21:27;59608.91;;;-140.72;100.00
38197;BME280;26543;51.976;4.616;2023-12-20T09:23:53;59588.59;;;-140.72;100.00
38197;BME280;26543;51.976;4.616;2023-12-20T09:26:18;59574.34;;;-140.72;100.00
38197;BME280;26543;51.976;4.616;2023-12-20T09:28:51;59600.78;;;-140.72;100.00
38197;BME280;26543;51.976;4.616;2023-12-20T09:31:17;59558.09;;;-140.72;100.00
38197;BME280;26543;51.976;4.616;2023-12-20T09:33:42;59535.72;;;-140.72;100.00
38197;BME280;26543;51.976;4.616;2023-12-20T09:36:07;59503.22;;;-140.72;100.00
38197;BME280;26543;51.976;4.616;2023-12-20T09:38:32;59543.84;;;-140.72;100.00
38197;BME280;26543;51.976;4.616;2023-12-20T09:40:58;59503.22;;;-140.72;100.00
38197;BME280;26543;51.976;4.616;2023-12-20T09:43:23;59519.47;;;-140.72;100.00
38197;BME280;26543;51.976;4.616;2023-12-20T09:45:49;59482.88;;;-140.72;100.00
38197;BME280;26543;51.976;4.616;2023-12-20T09:48:17;59491.00;;;-140.72;100.00
38197;BME280;26543;51.976;4.616;2023-12-20T09:50:44;59438.16;;;-140.72;100.00
38197;BME280;26543;51.976;4.616;2023-12-20T09:53:09;59491.00;;;-140.72;100.00
38197;BME280;26543;51.976;4.616;2023-12-20T09:55:36;59466.63;;;-140.72;100.00
38197;BME280;26543;51.976;4.616;2023-12-20T09:58:03;59448.31;;;-140.72;100.00
38197;BME280;26543;51.976;4.616;2023-12-20T10:00:28;59456.44;;;-140.72;100.00
38197;BME280;26543;51.976;4.616;2023-12-20T10:02:57;59438.16;;;-140.72;100.00
38197;BME280;26543;51.976;4.616;2023-12-20T10:05:26;59446.28;;;-140.72;100.00
38197;BME280;26543;51.976;4.616;2023-12-20T10:07:51;59460.53;;;-140.72;100.00
38197;BME280;26543;51.976;4.616;2023-12-20T10:10:16;59444.25;;;-140.72;100.00
38197;BME280;26543;51.976;4.616;2023-12-20T10:12:46;59417.84;;;-140.72;100.00
38197;BME280;26543;51.976;4.616;2023-12-20T10:15:25;59438.16;;;-140.72;100.00
38197;BME280;26543;51.976;4.616;2023-12-20T10:17:51;59399.53;;;-140.72;100.00
38197;BME280;26543;51.976;4.616;2023-12-20T10:20:16;59362.94;;;-140.72;100.00
38197;BME280;26543;51.976;4.616;2023-12-20T10:22:41;59299.94;;;-140.72;100.00
38197;BME280;26543;51.976;4.616;2023-12-20T10:25:07;59316.19;;;-140.72;100.00
38197;BME280;26543;51.976;4.616;2023-12-20T10:27:32;59253.19;;;-140.72;100.00
38197;BME280;26543;51.976;4.616;2023-12-20T10:29:58;59177.97;;;-140.72;100.00
38197;BME280;26543;51.976;4.616;2023-12-20T10:32:25;59180.00;;;-140.72;100.00
38197;BME280;26543;51.976;4.616;2023-12-20T10:34:51;59106.84;;;-140.72;100.00
38197;BME280;26543;51.976;4.616;2023-12-20T10:37:16;59129.19;;;-140.72;100.00
38197;BME280;26543;51.976;4.616;2023-12-20T10:39:42;59084.47;;;-140.72;100.00
38197;BME280;26543;51.976;4.616;2023-12-20T10:42:08;59080.41;;;-140.72;100.00
38197;BME280;26543;51.976;4.616;2023-12-20T10:44:34;59112.94;;;-140.72;100.00
38197;BME280;26543;51.976;4.616;2023-12-20T10:46:59;59117.00;;;-140.72;100.00
38197;BME280;26543;51.976;4.616;2023-12-20T10:49:25;59119.03;;;-140.72;100.00
38197;BME280;26543;51.976;4.616;2023-12-20T10:51:51;59139.34;;;-140.72;100.00
38197;BME280;26543;51.976;4.616;2023-12-20T10:54:17;59143.41;;;-140.72;100.00
38197;BME280;26543;51.976;4.616;2023-12-20T10:56:43;59133.25;;;-140.72;100.00
38197;BME280;26543;51.976;4.616;2023-12-20T10:59:08;59112.94;;;-140.72;100.00
38197;BME280;26543;51.976;4.616;2023-12-20T11:01:35;59149.53;;;-140.72;100.00
38197;BME280;26543;51.976;4.616;2023-12-20T11:04:01;59110.91;;;-140.72;100.00
38197;BME280;26543;51.976;4.616;2023-12-20T11:06:43;59068.22;;;-140.72;100.00
38197;BME280;26543;51.976;4.616;2023-12-20T11:14:06;58988.94;;;-140.72;100.00
38197;BME280;26543;51.976;4.616;2023-12-20T11:16:36;58938.13;;;-140.72;100.00
38197;BME280;26543;51.976;4.616;2023-12-20T11:19:05;58895.47;;;-140.72;100.00
38197;BME280;26543;51.976;4.616;2023-12-20T11:21:30;58885.28;;;-140.72;100.00
38197;BME280;26543;51.976;4.616;2023-12-20T11:23:55;58938.13;;;-140.72;100.00
38197;BME280;26543;51.976;4.616;2023-12-20T11:26:27;58976.75;;;-140.72;100.00
38197;BME280;26543;51.976;4.616;2023-12-20T11:28:53;58966.59;;;-140.72;100.00
38197;BME280;26543;51.976;4.616;2023-12-20T11:31:19;59047.91;;;-140.72;100.00
38197;BME280;26543;51.976;4.616;2023-12-20T11:33:44;59041.78;;;-140.72;100.00
38197;BME280;26543;51.976;4.616;2023-12-20T11:36:13;59039.75;;;-140.72;100.00
38197;BME280;26543;51.976;4.616;2023-12-20T11:38:49;58999.13;;;-140.72;100.00
38197;BME280;26543;51.976;4.616;2023-12-20T11:41:18;58999.13;;;-140.72;100.00
38197;BME280;26543;51.976;4.616;2023-12-20T11:43:44;58954.41;;;-140.72;100.00
38197;BME280;26543;51.976;4.616;2023-12-20T11:46:09;58936.09;;;-140.72;100.00
38197;BME280;26543;51.976;4.616;2023-12-20T11:48:35;58846.69;;;-140.72;100.00
38197;BME280;26543;51.976;4.616;2023-12-20T11:51:00;58852.78;;;-140.72;100.00
38197;BME280;26543;51.976;4.616;2023-12-20T11:53:26;58873.09;;;-140.72;100.00
38197;BME280;26543;51.976;4.616;2023-12-20T11:55:51;58808.06;;;-140.72;100.00
38197;BME280;26543;51.976;4.616;2023-12-20T11:58:16;58832.44;;;-140.72;100.00
38197;BME280;26543;51.976;4.616;2023-12-20T12:00:42;58824.31;;;-140.72;100.00
38197;BME280;26543;51.976;4.616;2023-12-20T12:03:08;58864.97;;;-140.72;100.00
38197;BME280;26543;51.976;4.616;2023-12-20T12:05:33;58881.22;;;-140.72;100.00
38197;BME280;26543;51.976;4.616;2023-12-20T12:07:58;58905.63;;;-140.72;100.00
38197;BME280;26543;51.976;4.616;2023-12-20T12:10:24;58954.41;;;-140.72;100.00
38197;BME280;26543;51.976;4.616;2023-12-20T12:12:49;59021.47;;;-140.72;100.00
38197;BME280;26543;51.976;4.616;2023-12-20T12:15:14;58970.66;;;-140.72;100.00
38197;BME280;26543;51.976;4.616;2023-12-20T12:17:40;59001.16;;;-140.72;100.00
38197;BME280;26543;51.976;4.616;2023-12-20T12:20:05;58970.66;;;-140.72;100.00
38197;BME280;26543;51.976;4.616;2023-12-20T12:22:31;58972.69;;;-140.72;100.00
38197;BME280;26543;51.976;4.616;2023-12-20T12:24:58;58919.84;;;-140.72;100.00
38197;BME280;26543;51.976;4.616;2023-12-20T12:27:24;58948.31;;;-140.72;100.00
38197;BME280;26543;51.976;4.616;2023-12-20T12:30:02;58948.31;;;-140.72;100.00
38197;BME280;26543;51.976;4.616;2023-12-20T12:32:28;58867.00;;;-140.72;100.00
38197;BME280;26543;51.976;4.616;2023-12-20T12:34:54;58838.53;;;-140.72;100.00
38197;BME280;26543;51.976;4.616;2023-12-20T12:37:19;58822.28;;;-140.72;100.00
38197;BME280;26543;51.976;4.616;2023-12-20T12:39:46;58781.63;;;-140.72;100.00
38197;BME280;26543;51.976;4.616;2023-12-20T12:42:11;58657.66;;;-140.72;100.00